Time;durP1;ratioP1;P1;durP2;ratioP2;P2;SDS_P1;SDS_P2;PMS_P1;PMS_P2;Temp;Humidity;BMP_temperature;BMP_pressure;BME280_temperature;BME280_humidity;BME280_pressure;Samples;Min_cycle;Max_cycle;Signal;HPM_P1;HPM_P2
2022/10/27 00:02:17;;;;;;;18.98;6.88;;;;;;;11.27;100.00;93498.91;4854165;29;20042;-77
2022/10/27 00:04:43;;;;;;;16.13;6.07;;;;;;;11.27;100.00;93493.66;4846858;29;20034;-76
2022/10/27 00:07:08;;;;;;;18.55;6.00;;;;;;;11.27;100.00;93498.91;4844846;29;20532;-77
2022/10/27 00:09:34;;;;;;;15.55;6.25;;;;;;;11.25;100.00;93501.78;4857380;29;20044;-77
2022/10/27 00:11:59;;;;;;;17.83;6.80;;;;;;;11.27;100.00;93500.75;4853358;29;20172;-77
2022/10/27 00:14:25;;;;;;;18.83;6.38;;;;;;;11.25;100.00;93493.16;4860052;29;20042;-77
2022/10/27 00:16:55;;;;;;;11.23;5.78;;;;;;;11.27;100.00;93492.88;4845459;29;20079;-77
2022/10/27 00:19:24;;;;;;;13.95;5.78;;;;;;;11.23;100.00;93501.25;4851713;29;20132;-77
2022/10/27 00:21:50;;;;;;;20.10;6.30;;;;;;;11.20;100.00;93493.16;4862502;29;20044;-77
2022/10/27 00:24:20;;;;;;;16.00;5.85;;;;;;;11.18;100.00;93503.13;4846801;29;20500;-78
2022/10/27 00:26:46;;;;;;;17.98;5.95;;;;;;;11.16;100.00;93499.97;4846068;29;20049;-78
2022/10/27 00:29:12;;;;;;;17.98;6.15;;;;;;;11.15;100.00;93503.66;4848189;29;20271;-77
2022/10/27 00:31:38;;;;;;;13.45;5.88;;;;;;;11.11;100.00;93497.38;4864380;29;20053;-77
2022/10/27 00:34:03;;;;;;;15.30;5.80;;;;;;;11.10;100.00;93507.06;4877735;29;20039;-77
2022/10/27 00:36:29;;;;;;;13.45;5.55;;;;;;;11.10;100.00;93506.25;4865003;29;20106;-77
2022/10/27 00:38:56;;;;;;;14.25;6.05;;;;;;;11.08;100.00;93510.97;4864421;29;20037;-77
2022/10/27 00:41:41;;;;;;;15.57;6.00;;;;;;;11.07;100.00;93506.81;4863989;29;20107;-77
2022/10/27 00:44:30;;;;;;;13.50;5.63;;;;;;;11.04;100.00;93510.75;4869675;29;20038;-77
2022/10/27 00:46:58;;;;;;;19.10;6.13;;;;;;;11.06;100.00;93507.88;4847145;29;20030;-77
2022/10/27 00:49:29;;;;;;;17.98;6.63;;;;;;;11.05;100.00;93504.44;4862717;29;20101;-77
2022/10/27 00:52:03;;;;;;;18.55;7.00;;;;;;;11.06;100.00;93510.50;4849331;29;20045;-77
2022/10/27 00:54:36;;;;;;;19.23;8.15;;;;;;;11.05;100.00;93504.44;4845122;29;20073;-77
2022/10/27 00:57:04;;;;;;;21.08;7.78;;;;;;;11.07;100.00;93517.28;4859641;29;20038;-77
2022/10/27 00:59:30;;;;;;;20.10;7.32;;;;;;;11.09;100.00;93515.19;4845045;29;20370;-77
2022/10/27 01:01:55;;;;;;;15.32;6.30;;;;;;;11.10;100.00;93522.00;4855496;29;20053;-77
2022/10/27 01:04:48;;;;;;;17.63;6.15;;;;;;;11.10;100.00;93512.31;4861916;29;20045;-78
2022/10/27 01:07:17;;;;;;;12.82;5.60;;;;;;;11.13;100.00;93521.47;4856404;29;20049;-77
2022/10/27 01:09:44;;;;;;;12.27;5.22;;;;;;;11.13;100.00;93516.25;4862356;29;20028;-77
2022/10/27 01:12:10;;;;;;;15.73;4.93;;;;;;;11.13;100.00;93516.25;4858837;29;20493;-77
2022/10/27 01:14:36;;;;;;;13.75;5.30;;;;;;;11.13;100.00;93513.63;4846330;29;20286;-77
2022/10/27 01:17:01;;;;;;;16.20;5.13;;;;;;;11.12;100.00;93525.13;4843569;29;20033;-77
2022/10/27 01:19:57;;;;;;;15.88;5.30;;;;;;;11.13;100.00;93521.47;4860460;29;20045;-77
2022/10/27 01:22:31;;;;;;;19.13;5.32;;;;;;;11.13;100.00;93524.88;4861511;29;20044;-77
2022/10/27 01:25:15;;;;;;;14.32;5.25;;;;;;;11.15;100.00;93535.09;4860750;29;20048;-77
2022/10/27 01:28:35;;;;;;;15.15;5.82;;;;;;;11.16;100.00;93534.03;4863967;29;20033;-77
2022/10/27 01:31:04;;;;;;;21.80;6.07;;;;;;;11.17;100.00;93525.16;4862304;29;20567;-77
2022/10/27 01:33:53;;;;;;;15.15;5.25;;;;;;;11.20;100.00;93532.47;4861742;29;20403;-78
2022/10/27 01:36:22;;;;;;;14.35;5.95;;;;;;;11.19;100.00;93523.03;4868733;29;20077;-77
2022/10/27 01:39:12;;;;;;;11.75;5.43;;;;;;;11.16;100.00;93528.81;4862544;29;20412;-77
2022/10/27 01:41:55;;;;;;;17.73;5.38;;;;;;;11.13;100.00;93531.97;4863358;29;20033;-77
2022/10/27 01:44:35;;;;;;;14.45;5.20;;;;;;;11.11;100.00;93523.56;4860473;29;20037;-77
2022/10/27 01:47:02;;;;;;;15.23;5.72;;;;;;;11.10;100.00;93528.03;4863223;29;20120;-77
2022/10/27 01:49:39;;;;;;;15.23;5.75;;;;;;;11.06;100.00;93515.72;4863317;29;20064;-77
2022/10/27 01:52:06;;;;;;;16.00;5.75;;;;;;;11.03;100.00;93512.59;4860550;29;20072;-77
2022/10/27 01:54:35;;;;;;;20.70;5.63;;;;;;;11.03;100.00;93514.41;4844182;29;20045;-77
2022/10/27 01:57:01;;;;;;;15.90;4.55;;;;;;;11.00;100.00;93518.31;4859141;29;20309;-77
2022/10/27 01:59:45;;;;;;;14.13;5.18;;;;;;;10.99;100.00;93521.22;4876741;29;20056;-77
2022/10/27 02:02:21;;;;;;;9.55;4.63;;;;;;;10.99;100.00;93522.00;4861142;29;20046;-77
2022/10/27 02:05:15;;;;;;;20.38;5.18;;;;;;;10.98;100.00;93519.66;4862158;29;20068;-78
2022/10/27 02:07:55;;;;;;;10.73;5.20;;;;;;;11.00;100.00;93528.03;4847140;29;20400;-77
2022/10/27 02:10:26;;;;;;;16.98;5.50;;;;;;;11.00;100.00;93518.31;4843526;29;20382;-77
2022/10/27 02:12:53;;;;;;;14.35;5.57;;;;;;;11.01;100.00;93517.28;4856892;29;20041;-78
2022/10/27 02:15:25;;;;;;;15.30;5.10;;;;;;;11.01;100.00;93519.09;4860234;29;20068;-77
2022/10/27 02:17:56;;;;;;;13.20;5.03;;;;;;;11.03;100.00;93527.50;4860418;29;20080;-77
2022/10/27 02:20:24;;;;;;;12.60;5.47;;;;;;;11.04;100.00;93519.38;4863140;29;20488;-77
2022/10/27 02:22:54;;;;;;;17.33;5.50;;;;;;;11.07;100.00;93512.81;4861124;29;20033;-77
2022/10/27 02:25:29;;;;;;;11.98;4.72;;;;;;;11.10;100.00;93520.19;4860899;29;20037;-77
2022/10/27 02:27:58;;;;;;;11.60;5.47;;;;;;;11.14;100.00;93517.78;4854016;29;20041;-77
2022/10/27 02:30:23;;;;;;;16.23;5.32;;;;;;;11.16;100.00;93518.31;4843898;29;20528;-78
2022/10/27 02:32:49;;;;;;;16.00;5.55;;;;;;;11.17;100.00;93512.03;4858239;29;20093;-77
2022/10/27 02:35:16;;;;;;;13.63;5.30;;;;;;;11.19;100.00;93515.97;4846410;29;20384;-78
2022/10/27 02:37:45;;;;;;;17.38;5.45;;;;;;;11.21;100.00;93515.69;4860381;29;20045;-77
2022/10/27 02:40:11;;;;;;;22.83;7.10;;;;;;;11.25;100.00;93514.13;4860253;29;20065;-77
2022/10/27 02:42:36;;;;;;;18.00;7.00;;;;;;;11.27;100.00;93521.72;4877351;29;20048;-78
2022/10/27 02:45:02;;;;;;;17.23;6.65;;;;;;;11.28;100.00;93516.22;4863016;29;20084;-77
2022/10/27 02:47:28;;;;;;;17.10;6.38;;;;;;;11.30;100.00;93519.34;4861429;29;20459;-77
2022/10/27 02:49:53;;;;;;;16.73;7.10;;;;;;;11.31;100.00;93520.94;4861173;29;20132;-77
2022/10/27 02:52:19;;;;;;;17.60;7.07;;;;;;;11.32;100.00;93519.09;4862371;29;20033;-78
2022/10/27 02:54:47;;;;;;;22.27;7.28;;;;;;;11.33;100.00;93526.69;4862976;29;20056;-77
2022/10/27 02:57:18;;;;;;;26.52;6.97;;;;;;;11.34;100.00;93523.00;4860661;29;20038;-78
2022/10/27 02:59:44;;;;;;;21.40;6.75;;;;;;;11.33;100.00;93516.22;4859689;29;20054;-77
2022/10/27 03:02:10;;;;;;;17.50;6.85;;;;;;;11.35;100.00;93519.34;4861277;29;20064;-77
2022/10/27 03:04:35;;;;;;;17.80;6.85;;;;;;;11.35;100.00;93519.34;4866610;29;20108;-77
2022/10/27 03:07:01;;;;;;;20.85;7.00;;;;;;;11.35;100.00;93521.97;4856581;29;20042;-77
2022/10/27 03:09:27;;;;;;;21.83;6.63;;;;;;;11.34;100.00;93519.59;4861681;29;20089;-77
2022/10/27 03:11:53;;;;;;;16.27;6.57;;;;;;;11.32;100.00;93524.31;4864417;29;20049;-77
2022/10/27 03:14:18;;;;;;;17.58;7.45;;;;;;;11.31;100.00;93522.78;4864832;29;20068;-77
2022/10/27 03:16:44;;;;;;;15.02;6.75;;;;;;;11.28;100.00;93524.09;4864716;29;20512;-78
2022/10/27 03:19:09;;;;;;;22.55;7.00;;;;;;;11.24;100.00;93521.19;4865394;29;20041;-77
2022/10/27 03:21:35;;;;;;;20.75;6.88;;;;;;;11.21;100.00;93524.34;4865217;29;20131;-77
2022/10/27 03:24:00;;;;;;;22.95;6.30;;;;;;;11.20;100.00;93522.00;4864841;29;20110;-77
2022/10/27 03:26:26;;;;;;;18.63;6.85;;;;;;;11.18;100.00;93519.63;4864189;29;20475;-77
2022/10/27 03:28:52;;;;;;;18.17;7.00;;;;;;;11.16;100.00;93523.56;4864561;29;20048;-77
2022/10/27 03:31:17;;;;;;;23.30;7.47;;;;;;;11.13;100.00;93517.03;4871335;29;20026;-77
2022/10/27 03:33:43;;;;;;;23.60;6.47;;;;;;;11.13;100.00;93518.88;4847194;29;20394;-77
2022/10/27 03:36:10;;;;;;;20.38;6.28;;;;;;;11.11;100.00;93523.56;4846130;29;20481;-78
2022/10/27 03:38:36;;;;;;;22.42;7.22;;;;;;;11.09;100.00;93520.44;4846337;29;20090;-78
2022/10/27 03:41:02;;;;;;;15.23;6.72;;;;;;;11.06;100.00;93527.00;4854149;29;20104;-77
2022/10/27 03:43:28;;;;;;;19.48;7.07;;;;;;;11.03;100.00;93524.88;4846018;29;20034;-78
2022/10/27 03:45:53;;;;;;;19.95;6.70;;;;;;;10.99;100.00;93522.00;4853427;29;20431;-78
2022/10/27 03:48:19;;;;;;;14.30;6.68;;;;;;;10.97;100.00;93529.34;4864361;29;20030;-78
2022/10/27 03:50:47;;;;;;;13.90;6.30;;;;;;;10.91;100.00;93517.28;4865343;29;20037;-77
2022/10/27 03:53:12;;;;;;;19.05;6.72;;;;;;;10.89;100.00;93521.22;4863732;29;20038;-77
2022/10/27 03:55:38;;;;;;;17.83;7.00;;;;;;;10.86;100.00;93527.78;4865279;29;20037;-77
2022/10/27 03:58:04;;;;;;;14.45;6.70;;;;;;;10.86;100.00;93522.53;4864909;29;20026;-77
2022/10/27 04:00:31;;;;;;;16.50;6.28;;;;;;;10.86;100.00;93532.22;4865427;29;20049;-77
2022/10/27 04:02:57;;;;;;;17.10;6.53;;;;;;;10.84;100.00;93524.63;4863697;29;20042;-77
2022/10/27 04:05:23;;;;;;;14.50;6.07;;;;;;;10.82;100.00;93537.19;4865293;29;20025;-77
2022/10/27 04:07:48;;;;;;;19.48;7.00;;;;;;;10.79;100.00;93532.50;4845393;29;20121;-77
2022/10/27 04:10:14;;;;;;;16.42;5.97;;;;;;;10.77;100.00;93537.19;4876845;29;20054;-77
2022/10/27 04:12:58;;;;;;;16.20;5.45;;;;;;;10.75;100.00;93537.44;4847062;29;20545;-77
2022/10/27 04:15:26;;;;;;;16.13;5.30;;;;;;;10.73;100.00;93533.53;4864411;29;20053;-77
2022/10/27 04:17:54;;;;;;;15.32;5.25;;;;;;;10.71;100.00;93538.25;4864831;29;20041;-78
2022/10/27 04:20:19;;;;;;;13.25;5.35;;;;;;;10.68;100.00;93546.63;4864347;29;20112;-78
2022/10/27 04:22:45;;;;;;;12.07;5.40;;;;;;;10.64;100.00;93530.63;4864701;29;20124;-78
2022/10/27 04:25:10;;;;;;;14.07;4.82;;;;;;;10.61;100.00;93537.19;4855984;29;20120;-77
2022/10/27 04:27:36;;;;;;;14.65;5.50;;;;;;;10.59;100.00;93541.88;4858983;29;20090;-77
2022/10/27 04:30:02;;;;;;;13.88;4.55;;;;;;;10.55;100.00;93543.44;4864340;29;20090;-77
2022/10/27 04:32:28;;;;;;;14.07;4.70;;;;;;;10.51;100.00;93546.84;4862989;29;20105;-78
2022/10/27 04:34:53;;;;;;;10.75;4.78;;;;;;;10.50;100.00;93547.91;4851565;29;20492;-77
2022/10/27 04:37:19;;;;;;;13.25;5.00;;;;;;;10.48;100.00;93547.38;4852179;29;20034;-78
2022/10/27 04:39:44;;;;;;;12.88;4.07;;;;;;;10.46;100.00;93554.69;4863525;29;20046;-79
2022/10/27 04:42:10;;;;;;;12.35;4.65;;;;;;;10.43;100.00;93563.84;4860102;29;20049;-79
2022/10/27 04:44:36;;;;;;;9.90;3.90;;;;;;;10.43;100.00;93560.47;4847594;29;20551;-78
2022/10/27 04:47:02;;;;;;;11.30;4.07;;;;;;;10.40;100.00;93556.50;4868989;29;20050;-79
2022/10/27 04:49:27;;;;;;;13.38;4.70;;;;;;;10.37;100.00;93563.03;4858011;29;21218;-78
2022/10/27 04:51:53;;;;;;;14.05;4.30;;;;;;;10.35;100.00;93559.91;4858240;29;20041;-79
2022/10/27 04:54:18;;;;;;;14.20;4.22;;;;;;;10.36;100.00;93566.72;4857265;29;20165;-78
2022/10/27 04:56:44;;;;;;;11.98;4.57;;;;;;;10.37;100.00;93568.28;4877157;29;20037;-78
2022/10/27 04:59:10;;;;;;;17.30;4.72;;;;;;;10.37;100.00;93578.75;4859131;29;20034;-77
2022/10/27 05:01:38;;;;;;;14.52;4.68;;;;;;;10.37;100.00;93577.97;4855186;29;20065;-79
2022/10/27 05:04:04;;;;;;;14.68;5.43;;;;;;;10.35;100.00;93580.06;4840847;29;20041;-79
2022/10/27 05:06:30;;;;;;;20.08;4.88;;;;;;;10.33;100.00;93577.69;4849466;29;20057;-80
2022/10/27 05:08:55;;;;;;;15.23;4.95;;;;;;;10.34;100.00;93586.34;4850262;29;20044;-78
2022/10/27 05:11:21;;;;;;;19.02;5.00;;;;;;;10.34;100.00;93588.97;4856531;29;20065;-79
2022/10/27 05:13:50;;;;;;;12.63;5.20;;;;;;;10.31;100.00;93579.78;4853374;29;20048;-78
2022/10/27 05:16:16;;;;;;;12.43;4.82;;;;;;;10.32;100.00;93583.97;4843155;29;20145;-79
2022/10/27 05:18:42;;;;;;;18.00;6.60;;;;;;;10.30;100.00;93580.03;4841014;29;20045;-76
2022/10/27 05:21:08;;;;;;;17.27;5.20;;;;;;;10.29;100.00;93583.69;4841371;29;20042;-77
2022/10/27 05:23:34;;;;;;;18.58;5.20;;;;;;;10.28;100.00;93585.50;4849422;29;20041;-77
2022/10/27 05:25:59;;;;;;;13.57;5.30;;;;;;;10.27;100.00;93583.13;4873980;29;20044;-77
2022/10/27 05:28:25;;;;;;;14.98;5.47;;;;;;;10.27;100.00;93585.75;4877351;29;20037;-77
2022/10/27 05:30:58;;;;;;;13.85;6.00;;;;;;;10.26;100.00;93592.03;4853508;29;20129;-77
2022/10/27 05:33:25;;;;;;;19.48;5.93;;;;;;;10.26;100.00;93592.03;4843651;29;20034;-77
2022/10/27 05:35:51;;;;;;;27.77;6.75;;;;;;;10.26;100.00;93597.28;4852942;29;20511;-76
2022/10/27 05:38:17;;;;;;;13.88;6.20;;;;;;;10.26;100.00;93586.81;4852044;29;20038;-77
2022/10/27 05:40:42;;;;;;;16.08;7.00;;;;;;;10.26;100.00;93586.81;4858055;29;20039;-76
2022/10/27 05:43:09;;;;;;;16.73;6.90;;;;;;;10.27;100.00;93586.56;4858501;29;20064;-77
2022/10/27 05:45:34;;;;;;;19.90;7.25;;;;;;;10.28;100.00;93580.25;4860694;29;20054;-77
2022/10/27 05:48:09;;;;;;;20.55;7.03;;;;;;;10.30;100.00;93590.50;4855516;29;20041;-77
2022/10/27 05:50:35;;;;;;;17.20;6.20;;;;;;;10.32;100.00;93596.28;4846876;29;20044;-77
2022/10/27 05:53:01;;;;;;;10.60;5.10;;;;;;;10.30;100.00;93593.13;4855909;29;20463;-80
2022/10/27 05:55:27;;;;;;;15.32;5.22;;;;;;;10.29;100.00;93594.16;4857911;29;20093;-79
2022/10/27 05:57:59;;;;;;;12.88;5.22;;;;;;;10.28;100.00;93593.34;4859602;29;20088;-80
2022/10/27 06:00:29;;;;;;;15.52;5.95;;;;;;;10.29;100.00;93602.00;4854283;29;20283;-79
2022/10/27 06:02:59;;;;;;;14.52;5.82;;;;;;;10.30;100.00;93603.59;4858646;29;20484;-80
2022/10/27 06:05:26;;;;;;;16.88;6.05;;;;;;;10.33;100.00;93603.06;4855518;29;20046;-79
2022/10/27 06:07:52;;;;;;;15.38;6.15;;;;;;;10.36;100.00;93607.81;4858995;29;20489;-80
2022/10/27 06:10:18;;;;;;;13.32;6.10;;;;;;;10.39;100.00;93609.91;4851168;29;20034;-80
2022/10/27 06:12:43;;;;;;;16.42;5.32;;;;;;;10.57;100.00;93614.66;4858764;29;20448;-79
2022/10/27 06:15:09;;;;;;;17.50;5.75;;;;;;;10.72;100.00;93613.94;4847171;29;20099;-79
2022/10/27 06:17:35;;;;;;;20.08;5.90;;;;;;;10.74;100.00;93618.88;4855734;29;20076;-79
2022/10/27 06:20:01;;;;;;;15.95;6.10;;;;;;;10.80;100.00;93620.47;4844852;29;20061;-80
2022/10/27 06:22:26;;;;;;;16.70;5.88;;;;;;;10.80;100.00;93621.25;4847630;29;20037;-81
2022/10/27 06:24:52;;;;;;;12.00;5.13;;;;;;;10.79;100.00;93621.53;4847929;29;20090;-80
2022/10/27 06:27:17;;;;;;;17.77;5.22;;;;;;;10.90;100.00;93630.19;4841634;29;20041;-79
2022/10/27 06:29:43;;;;;;;10.82;4.72;;;;;;;11.38;100.00;93633.38;4844858;29;20030;-79
2022/10/27 06:32:08;;;;;;;13.73;4.10;;;;;;;12.14;100.00;93640.38;4846095;29;20042;-80
2022/10/27 06:34:34;;;;;;;9.70;3.53;;;;;;;12.84;100.00;93642.97;4836501;29;20052;-80
2022/10/27 06:37:02;;;;;;;8.70;3.35;;;;;;;13.56;100.00;93647.00;4859873;29;20090;-80
2022/10/27 06:39:28;;;;;;;8.93;3.80;;;;;;;14.31;100.00;93655.22;4859262;29;20057;-81
2022/10/27 06:41:57;;;;;;;7.10;3.20;;;;;;;15.06;100.00;93655.66;4852763;29;20519;-80
2022/10/27 06:44:23;;;;;;;11.05;4.47;;;;;;;15.83;100.00;93657.94;4873138;29;20049;-81
2022/10/27 06:46:49;;;;;;;10.15;3.28;;;;;;;16.49;95.88;93663.13;4850768;29;20065;-81
2022/10/27 06:49:14;;;;;;;9.73;3.45;;;;;;;17.18;92.64;93663.84;4845084;29;20049;-81
2022/10/27 06:51:40;;;;;;;16.92;3.40;;;;;;;17.93;88.71;93660.81;4846584;29;20275;-81
2022/10/27 06:54:05;;;;;;;7.55;3.30;;;;;;;18.49;83.77;93667.31;4825454;29;20053;-81
2022/10/27 06:56:31;;;;;;;15.85;3.03;;;;;;;18.82;76.82;93665.09;4853107;29;20048;-81
2022/10/27 06:58:56;;;;;;;12.35;4.28;;;;;;;19.21;75.08;93665.34;4845757;29;20061;-81
2022/10/27 07:01:22;;;;;;;9.98;3.38;;;;;;;19.68;71.92;93676.09;4852316;29;20045;-81
2022/10/27 07:03:49;;;;;;;6.57;3.15;;;;;;;20.17;70.49;93668.72;4859025;29;20045;-81
2022/10/27 07:06:15;;;;;;;11.25;3.20;;;;;;;20.82;68.38;93673.97;4862922;29;20053;-81
2022/10/27 07:08:40;;;;;;;9.82;3.40;;;;;;;21.33;64.15;93675.53;4846892;29;20034;-80
2022/10/27 07:11:06;;;;;;;12.30;3.53;;;;;;;22.07;61.51;93677.78;4852610;29;20109;-81
2022/10/27 07:13:32;;;;;;;20.05;4.63;;;;;;;22.01;58.00;93677.97;4847995;29;20046;-81
2022/10/27 07:15:57;;;;;;;9.00;3.70;;;;;;;22.45;56.37;93680.25;4861868;29;20052;-82
2022/10/27 07:18:23;;;;;;;17.48;4.07;;;;;;;22.90;56.23;93681.25;4868319;29;20045;-81
2022/10/27 07:20:50;;;;;;;18.25;4.13;;;;;;;23.35;55.20;93681.13;4862079;29;20080;-81
2022/10/27 07:23:15;;;;;;;19.67;4.72;;;;;;;23.45;54.75;93677.22;4850827;29;20054;-82
2022/10/27 07:25:41;;;;;;;15.45;4.93;;;;;;;24.12;51.80;93671.44;4843321;29;20046;-82
2022/10/27 07:28:07;;;;;;;14.88;4.63;;;;;;;24.16;52.17;93673.09;4843833;29;20053;-81
2022/10/27 07:30:35;;;;;;;18.83;5.95;;;;;;;24.87;52.35;93679.44;4855866;29;20424;-81
2022/10/27 07:33:01;;;;;;;22.55;6.25;;;;;;;24.73;51.50;93684.47;4851492;29;20042;-81
2022/10/27 07:35:27;;;;;;;17.50;6.22;;;;;;;23.90;53.93;93685.00;4844216;29;20033;-81
2022/10/27 07:37:53;;;;;;;20.75;6.22;;;;;;;23.93;54.23;93690.78;4855872;29;20106;-82
2022/10/27 07:40:22;;;;;;;16.55;5.97;;;;;;;23.38;54.19;93690.38;4854821;29;20390;-81
2022/10/27 07:42:52;;;;;;;22.80;6.10;;;;;;;22.86;58.84;93694.50;4854840;29;20041;-81
2022/10/27 07:45:21;;;;;;;12.93;5.33;;;;;;;23.39;56.45;93692.69;4859416;29;20055;-81
2022/10/27 07:47:48;;;;;;;16.83;6.40;;;;;;;23.72;55.07;93701.63;4860298;29;20512;-81
2022/10/27 07:50:15;;;;;;;12.55;5.30;;;;;;;23.74;53.45;93704.75;4861469;29;20437;-81
2022/10/27 07:52:42;;;;;;;13.43;5.15;;;;;;;23.75;51.60;93701.75;4846827;29;20038;-81
2022/10/27 07:55:09;;;;;;;13.07;4.90;;;;;;;23.05;53.02;93697.41;4845079;29;20076;-80
2022/10/27 07:57:34;;;;;;;14.50;5.65;;;;;;;22.05;57.39;93710.09;4859929;29;20145;-81
2022/10/27 08:00:00;;;;;;;13.50;5.65;;;;;;;21.02;59.19;93707.84;4861792;29;20053;-80
2022/10/27 08:02:25;;;;;;;16.15;5.28;;;;;;;20.39;63.87;93704.94;4861666;29;20072;-82
2022/10/27 08:04:51;;;;;;;16.33;5.03;;;;;;;20.10;66.05;93716.25;4865163;29;20045;-81
2022/10/27 08:07:16;;;;;;;15.30;5.30;;;;;;;19.80;65.67;93712.72;4863805;29;20129;-81
2022/10/27 08:09:42;;;;;;;16.95;5.28;;;;;;;20.11;65.42;93712.53;4864636;29;20065;-81
2022/10/27 08:12:08;;;;;;;15.70;4.85;;;;;;;20.27;58.90;93710.16;4865228;29;20033;-80
2022/10/27 08:14:34;;;;;;;15.57;4.82;;;;;;;20.80;60.80;93714.19;4857374;29;20049;-81
2022/10/27 08:16:59;;;;;;;20.80;5.55;;;;;;;21.16;63.68;93731.56;4856828;29;20097;-81
2022/10/27 08:19:25;;;;;;;13.75;5.57;;;;;;;21.14;62.22;93721.25;4865239;29;20041;-81
2022/10/27 08:21:50;;;;;;;10.88;5.25;;;;;;;20.73;64.00;93725.34;4853968;29;20045;-80
2022/10/27 08:24:16;;;;;;;15.38;5.93;;;;;;;20.35;67.21;93722.63;4850716;29;20087;-81
2022/10/27 08:26:41;;;;;;;12.98;4.90;;;;;;;20.10;68.47;93717.03;4859176;29;20033;-80
2022/10/27 08:29:07;;;;;;;11.90;5.10;;;;;;;19.85;67.89;93723.16;4845125;29;20034;-80
2022/10/27 08:31:32;;;;;;;20.02;5.20;;;;;;;19.89;65.44;93724.13;4846097;29;20474;-81
2022/10/27 08:33:58;;;;;;;12.13;4.78;;;;;;;19.84;63.81;93718.97;4844849;29;20122;-81
2022/10/27 08:36:23;;;;;;;14.95;4.80;;;;;;;19.34;64.79;93722.78;4857460;29;20120;-81
2022/10/27 08:38:49;;;;;;;17.10;4.80;;;;;;;19.28;65.25;93727.50;4852385;29;20068;-81
2022/10/27 08:41:20;;;;;;;12.50;5.00;;;;;;;19.18;62.64;93725.13;4846302;29;20109;-81
2022/10/27 08:44:13;;;;;;;18.00;6.40;;;;;;;19.07;64.05;93724.66;4846247;29;20037;-80
2022/10/27 08:47:03;;;;;;;16.45;4.68;;;;;;;19.41;62.80;93722.34;4855251;29;20057;-81
2022/10/27 08:49:41;;;;;;;13.63;4.70;;;;;;;19.66;64.92;93718.94;4860916;29;20038;-80
2022/10/27 08:52:26;;;;;;;9.43;4.47;;;;;;;19.96;64.76;93716.44;4864864;29;20052;-80
2022/10/27 08:54:59;;;;;;;12.32;4.60;;;;;;;19.82;62.05;93719.28;4861989;29;20033;-80
2022/10/27 08:57:30;;;;;;;16.27;5.05;;;;;;;19.63;63.48;93716.09;4858912;29;20049;-81
2022/10/27 08:59:58;;;;;;;13.60;4.90;;;;;;;19.31;65.83;93716.25;4842698;29;20040;-80
2022/10/27 09:02:38;;;;;;;11.63;4.88;;;;;;;18.63;65.24;93728.22;4843349;29;20034;-80
2022/10/27 09:05:35;;;;;;;17.15;5.28;;;;;;;18.56;65.71;93719.91;4853672;29;20048;-81
2022/10/27 09:08:29;;;;;;;15.88;5.40;;;;;;;18.71;68.11;93719.47;4847398;29;20034;-81
2022/10/27 09:11:26;;;;;;;11.77;5.10;;;;;;;18.83;67.18;93719.72;4837949;29;20106;-80
2022/10/27 09:14:13;;;;;;;18.30;5.47;;;;;;;18.91;67.89;93724.28;4823359;29;20523;-80
2022/10/27 09:17:17;;;;;;;15.80;5.05;;;;;;;19.25;67.52;93728.13;4845991;29;20538;-80
2022/10/27 09:19:46;;;;;;;13.27;4.80;;;;;;;19.12;69.78;93723.72;4849647;29;20041;-80
2022/10/27 09:22:17;;;;;;;11.05;5.10;;;;;;;18.91;67.97;93726.94;4847311;29;20037;-80
2022/10/27 09:24:42;;;;;;;17.92;5.60;;;;;;;18.81;71.55;93729.88;4855016;29;20034;-80
2022/10/27 09:27:13;;;;;;;15.73;6.07;;;;;;;18.89;73.04;93729.13;4854547;29;20243;-80
2022/10/27 09:29:40;;;;;;;20.80;5.97;;;;;;;18.78;70.92;93735.78;4847954;29;20054;-80
2022/10/27 09:32:11;;;;;;;18.60;5.97;;;;;;;18.69;70.78;93734.94;4829525;29;20121;-80
2022/10/27 09:34:44;;;;;;;16.50;6.88;;;;;;;18.92;70.23;93733.78;4857152;29;20037;-80
2022/10/27 09:37:17;;;;;;;19.85;5.45;;;;;;;19.20;69.17;93735.44;4861193;29;20061;-80
2022/10/27 09:39:47;;;;;;;20.27;5.85;;;;;;;19.69;67.15;93734.25;4855992;29;20034;-81
2022/10/27 09:42:13;;;;;;;14.63;5.30;;;;;;;19.78;67.78;93733.50;4866053;29;20041;-81
2022/10/27 09:44:39;;;;;;;18.05;5.35;;;;;;;19.56;67.48;93735.94;4864306;29;20059;-81
2022/10/27 09:47:05;;;;;;;16.75;5.63;;;;;;;19.52;67.99;93735.03;4863383;29;20056;-85
2022/10/27 09:49:44;;;;;;;16.25;5.90;;;;;;;19.44;71.35;93737.66;4852895;29;20030;-81
2022/10/27 09:52:11;;;;;;;15.90;5.45;;;;;;;19.49;70.36;93740.94;4844878;29;20038;-79
2022/10/27 09:54:41;;;;;;;16.35;6.18;;;;;;;19.19;70.80;93734.66;4851664;29;20091;-81
2022/10/27 09:57:18;;;;;;;12.68;5.40;;;;;;;19.43;70.09;93741.41;4843128;29;20041;-81
2022/10/27 10:00:13;;;;;;;14.05;5.22;;;;;;;19.35;69.40;93737.66;4859229;29;20076;-81
2022/10/27 10:02:42;;;;;;;12.65;5.65;;;;;;;19.40;69.11;93734.06;4838482;29;20045;-81
2022/10/27 10:05:25;;;;;;;17.73;5.15;;;;;;;19.17;70.69;93736.84;4851778;29;20036;-79
2022/10/27 10:07:51;;;;;;;10.93;4.90;;;;;;;19.11;71.20;93743.38;4855817;29;20128;-81
2022/10/27 10:10:23;;;;;;;13.02;5.32;;;;;;;19.18;72.40;93740.25;4861690;29;20069;-81
2022/10/27 10:13:13;;;;;;;18.67;6.95;;;;;;;19.06;71.91;93741.63;4859042;29;20320;-81
2022/10/27 10:16:18;;;;;;;13.45;5.10;;;;;;;19.18;72.28;93741.03;4849788;29;20057;-82
2022/10/27 10:19:01;;;;;;;15.70;6.03;;;;;;;18.84;71.44;93745.16;4856352;29;20072;-81
2022/10/27 10:21:44;;;;;;;13.32;5.85;;;;;;;18.81;73.26;93734.38;4847679;29;20060;-82
2022/10/27 10:24:17;;;;;;;12.68;4.45;;;;;;;19.16;72.44;93740.56;4866414;29;20517;-82
2022/10/27 10:26:49;;;;;;;12.52;5.25;;;;;;;19.30;71.58;93737.81;4867468;29;20074;-83
2022/10/27 10:29:26;;;;;;;13.15;4.88;;;;;;;19.10;70.58;93739.94;4868826;29;20090;-82
2022/10/27 10:32:05;;;;;;;16.35;5.55;;;;;;;19.24;72.79;93739.03;4846619;29;20069;-82
2022/10/27 10:34:32;;;;;;;12.43;4.68;;;;;;;19.27;72.25;93738.41;4852575;29;20057;-82
2022/10/27 10:36:57;;;;;;;19.80;5.97;;;;;;;19.12;72.55;93737.00;4855754;29;20381;-82
2022/10/27 10:39:34;;;;;;;16.17;5.50;;;;;;;19.13;72.94;93738.53;4847989;29;20045;-81
2022/10/27 10:42:09;;;;;;;14.13;5.65;;;;;;;19.24;72.54;93739.03;4860717;29;20041;-82
2022/10/27 10:44:35;;;;;;;15.93;5.75;;;;;;;18.99;72.94;93737.88;4847639;29;20069;-81
2022/10/27 10:47:02;;;;;;;16.38;6.05;;;;;;;18.96;74.37;93733.16;4852512;29;20125;-82
2022/10/27 10:49:36;;;;;;;12.73;6.00;;;;;;;18.96;73.86;93730.53;4852071;29;20050;-81
2022/10/27 10:52:06;;;;;;;17.70;6.00;;;;;;;19.28;73.58;93732.03;4859356;29;20125;-81
2022/10/27 10:54:35;;;;;;;16.02;5.57;;;;;;;19.19;73.06;93726.69;4857286;29;20090;-81
2022/10/27 10:57:01;;;;;;;18.88;5.88;;;;;;;19.05;74.79;93720.72;4849845;29;20116;-81
2022/10/27 10:59:32;;;;;;;14.75;5.93;;;;;;;18.96;75.63;93717.25;4843743;29;20037;-81
2022/10/27 11:02:25;;;;;;;15.45;6.38;;;;;;;19.15;75.21;93715.13;4867291;29;20049;-81
2022/10/27 11:04:51;;;;;;;16.70;5.82;;;;;;;19.17;73.85;93712.94;4862879;29;20038;-81
2022/10/27 11:07:24;;;;;;;22.20;7.50;;;;;;;19.35;74.90;93709.22;4849300;29;20032;-81
2022/10/27 11:10:10;;;;;;;12.90;5.90;;;;;;;19.04;73.33;93708.53;4861227;29;20045;-81
2022/10/27 11:12:47;;;;;;;18.65;6.32;;;;;;;19.08;72.96;93714.81;4843662;29;20050;-81
2022/10/27 11:15:27;;;;;;;18.08;5.97;;;;;;;19.08;74.82;93712.16;4852010;29;20049;-82
2022/10/27 11:18:05;;;;;;;17.55;5.72;;;;;;;19.26;73.59;93708.44;4858074;29;20495;-82
2022/10/27 11:20:35;;;;;;;20.27;6.32;;;;;;;19.61;73.34;93711.13;4861044;29;20042;-82
2022/10/27 11:23:09;;;;;;;14.45;5.22;;;;;;;20.00;73.85;93712.06;4861775;29;20048;-82
2022/10/27 11:25:35;;;;;;;12.23;5.05;;;;;;;20.28;72.53;93706.38;4866500;29;20071;-82
2022/10/27 11:28:16;;;;;;;17.33;4.65;;;;;;;20.54;67.54;93703.66;4865006;29;20392;-80
2022/10/27 11:30:51;;;;;;;15.27;5.13;;;;;;;20.76;67.00;93706.09;4859951;29;20037;-82
2022/10/27 11:33:31;;;;;;;15.13;5.15;;;;;;;20.88;66.60;93702.75;4865438;29;20037;-82
2022/10/27 11:36:19;;;;;;;16.67;5.88;;;;;;;20.43;67.45;93708.53;4859815;29;20069;-82